sensor_id;sensor_type;location;lat;lon;timestamp;P1;durP1;ratioP1;P2;durP2;ratioP2
11957;SDS011;6039;52.576;13.348;2023-09-07T00:02:57;6.70;;;5.33;;
11957;SDS011;6039;52.576;13.348;2023-09-07T00:08:04;7.87;;;5.33;;
11957;SDS011;6039;52.576;13.348;2023-09-07T00:13:08;8.17;;;5.17;;
11957;SDS011;6039;52.576;13.348;2023-09-07T00:18:12;6.07;;;5.13;;
11957;SDS011;6039;52.576;13.348;2023-09-07T00:23:18;6.30;;;5.20;;
11957;SDS011;6039;52.576;13.348;2023-09-07T00:28:22;6.17;;;5.30;;
11957;SDS011;6039;52.576;13.348;2023-09-07T00:33:26;7.00;;;5.27;;
11957;SDS011;6039;52.576;13.348;2023-09-07T00:38:33;6.27;;;5.07;;
11957;SDS011;6039;52.576;13.348;2023-09-07T00:43:37;6.33;;;5.30;;
11957;SDS011;6039;52.576;13.348;2023-09-07T00:48:41;7.27;;;5.40;;
11957;SDS011;6039;52.576;13.348;2023-09-07T00:53:47;8.07;;;5.40;;
11957;SDS011;6039;52.576;13.348;2023-09-07T00:58:52;7.00;;;5.10;;
11957;SDS011;6039;52.576;13.348;2023-09-07T01:03:58;5.97;;;4.57;;
11957;SDS011;6039;52.576;13.348;2023-09-07T01:09:08;6.17;;;5.00;;
11957;SDS011;6039;52.576;13.348;2023-09-07T01:14:15;5.83;;;5.03;;
11957;SDS011;6039;52.576;13.348;2023-09-07T01:19:19;5.83;;;4.73;;
11957;SDS011;6039;52.576;13.348;2023-09-07T01:24:26;5.93;;;4.83;;
11957;SDS011;6039;52.576;13.348;2023-09-07T01:29:30;5.90;;;4.83;;
11957;SDS011;6039;52.576;13.348;2023-09-07T01:34:34;6.80;;;4.90;;
11957;SDS011;6039;52.576;13.348;2023-09-07T01:39:41;6.00;;;5.03;;
11957;SDS011;6039;52.576;13.348;2023-09-07T01:44:44;6.40;;;4.93;;
11957;SDS011;6039;52.576;13.348;2023-09-07T01:49:48;8.50;;;4.80;;
11957;SDS011;6039;52.576;13.348;2023-09-07T01:54:55;6.40;;;4.80;;
11957;SDS011;6039;52.576;13.348;2023-09-07T01:59:59;5.10;;;4.50;;
11957;SDS011;6039;52.576;13.348;2023-09-07T02:05:05;6.53;;;5.00;;
11957;SDS011;6039;52.576;13.348;2023-09-07T02:10:12;5.70;;;4.97;;
11957;SDS011;6039;52.576;13.348;2023-09-07T02:15:16;7.93;;;5.10;;
11957;SDS011;6039;52.576;13.348;2023-09-07T02:20:20;8.03;;;5.20;;
11957;SDS011;6039;52.576;13.348;2023-09-07T02:25:26;9.23;;;5.63;;
11957;SDS011;6039;52.576;13.348;2023-09-07T02:30:31;9.80;;;4.87;;
11957;SDS011;6039;52.576;13.348;2023-09-07T02:35:36;9.87;;;5.37;;
11957;SDS011;6039;52.576;13.348;2023-09-07T02:40:43;6.93;;;5.43;;
11957;SDS011;6039;52.576;13.348;2023-09-07T02:45:48;7.13;;;5.27;;
11957;SDS011;6039;52.576;13.348;2023-09-07T02:50:52;7.57;;;5.87;;
11957;SDS011;6039;52.576;13.348;2023-09-07T02:56:01;8.27;;;5.07;;
11957;SDS011;6039;52.576;13.348;2023-09-07T03:01:05;6.20;;;5.20;;
11957;SDS011;6039;52.576;13.348;2023-09-07T03:06:10;6.10;;;4.90;;
11957;SDS011;6039;52.576;13.348;2023-09-07T03:11:19;7.43;;;5.23;;
11957;SDS011;6039;52.576;13.348;2023-09-07T03:16:23;7.67;;;5.70;;
11957;SDS011;6039;52.576;13.348;2023-09-07T03:21:27;6.93;;;5.30;;
11957;SDS011;6039;52.576;13.348;2023-09-07T03:26:34;7.17;;;5.17;;
11957;SDS011;6039;52.576;13.348;2023-09-07T03:31:38;6.10;;;5.13;;
11957;SDS011;6039;52.576;13.348;2023-09-07T03:36:42;7.23;;;5.50;;
11957;SDS011;6039;52.576;13.348;2023-09-07T03:41:48;7.37;;;5.30;;
11957;SDS011;6039;52.576;13.348;2023-09-07T03:46:52;7.10;;;5.40;;
11957;SDS011;6039;52.576;13.348;2023-09-07T03:51:56;6.50;;;5.20;;
11957;SDS011;6039;52.576;13.348;2023-09-07T03:57:03;9.17;;;5.40;;
11957;SDS011;6039;52.576;13.348;2023-09-07T04:02:07;7.40;;;5.80;;
11957;SDS011;6039;52.576;13.348;2023-09-07T04:07:12;6.93;;;5.70;;
11957;SDS011;6039;52.576;13.348;2023-09-07T04:12:19;7.47;;;5.70;;
11957;SDS011;6039;52.576;13.348;2023-09-07T04:17:23;7.80;;;5.80;;
11957;SDS011;6039;52.576;13.348;2023-09-07T04:22:27;8.07;;;5.33;;
11957;SDS011;6039;52.576;13.348;2023-09-07T04:27:33;7.47;;;6.07;;
11957;SDS011;6039;52.576;13.348;2023-09-07T04:32:37;8.03;;;5.73;;
11957;SDS011;6039;52.576;13.348;2023-09-07T04:37:41;8.10;;;5.40;;
11957;SDS011;6039;52.576;13.348;2023-09-07T04:42:48;8.60;;;6.00;;
11957;SDS011;6039;52.576;13.348;2023-09-07T04:47:52;10.13;;;5.60;;
11957;SDS011;6039;52.576;13.348;2023-09-07T04:52:56;8.13;;;6.07;;
11957;SDS011;6039;52.576;13.348;2023-09-07T04:58:03;9.27;;;5.80;;
11957;SDS011;6039;52.576;13.348;2023-09-07T05:03:07;8.20;;;5.80;;
11957;SDS011;6039;52.576;13.348;2023-09-07T05:08:12;8.13;;;5.90;;
11957;SDS011;6039;52.576;13.348;2023-09-07T05:13:19;9.27;;;5.57;;
11957;SDS011;6039;52.576;13.348;2023-09-07T05:18:23;8.97;;;6.03;;
11957;SDS011;6039;52.576;13.348;2023-09-07T05:23:26;11.80;;;5.90;;
11957;SDS011;6039;52.576;13.348;2023-09-07T05:28:33;11.10;;;6.43;;
11957;SDS011;6039;52.576;13.348;2023-09-07T05:33:37;8.97;;;6.20;;
11957;SDS011;6039;52.576;13.348;2023-09-07T05:38:41;8.80;;;5.87;;
11957;SDS011;6039;52.576;13.348;2023-09-07T05:43:47;9.03;;;6.10;;
11957;SDS011;6039;52.576;13.348;2023-09-07T05:48:51;9.60;;;6.10;;
11957;SDS011;6039;52.576;13.348;2023-09-07T05:53:55;8.13;;;6.80;;
11957;SDS011;6039;52.576;13.348;2023-09-07T05:59:02;8.20;;;6.27;;
11957;SDS011;6039;52.576;13.348;2023-09-07T06:04:06;8.27;;;6.27;;
11957;SDS011;6039;52.576;13.348;2023-09-07T06:09:10;9.93;;;6.80;;
11957;SDS011;6039;52.576;13.348;2023-09-07T06:14:17;18.30;;;11.30;;
11957;SDS011;6039;52.576;13.348;2023-09-07T06:19:21;9.63;;;6.60;;
11957;SDS011;6039;52.576;13.348;2023-09-07T06:24:24;7.43;;;6.10;;
11957;SDS011;6039;52.576;13.348;2023-09-07T06:29:31;8.67;;;5.93;;
11957;SDS011;6039;52.576;13.348;2023-09-07T06:34:35;13.20;;;6.23;;
11957;SDS011;6039;52.576;13.348;2023-09-07T06:39:39;8.30;;;5.97;;
11957;SDS011;6039;52.576;13.348;2023-09-07T06:44:47;10.50;;;6.07;;
11957;SDS011;6039;52.576;13.348;2023-09-07T06:49:51;7.40;;;5.47;;
11957;SDS011;6039;52.576;13.348;2023-09-07T06:54:55;11.27;;;5.80;;
11957;SDS011;6039;52.576;13.348;2023-09-07T07:00:02;7.87;;;5.87;;
11957;SDS011;6039;52.576;13.348;2023-09-07T07:05:07;7.70;;;5.30;;
11957;SDS011;6039;52.576;13.348;2023-09-07T07:10:11;7.40;;;5.53;;
11957;SDS011;6039;52.576;13.348;2023-09-07T07:15:18;6.68;;;5.28;;
11957;SDS011;6039;52.576;13.348;2023-09-07T07:20:22;6.78;;;5.03;;
11957;SDS011;6039;52.576;13.348;2023-09-07T07:25:26;6.28;;;5.03;;
11957;SDS011;6039;52.576;13.348;2023-09-07T07:30:34;6.22;;;5.07;;
11957;SDS011;6039;52.576;13.348;2023-09-07T07:35:40;6.72;;;5.20;;
11957;SDS011;6039;52.576;13.348;2023-09-07T07:40:44;7.13;;;4.93;;
11957;SDS011;6039;52.576;13.348;2023-09-07T07:45:50;6.35;;;5.00;;
11957;SDS011;6039;52.576;13.348;2023-09-07T07:50:56;5.95;;;4.70;;
11957;SDS011;6039;52.576;13.348;2023-09-07T07:56:00;5.60;;;4.65;;
11957;SDS011;6039;52.576;13.348;2023-09-07T08:01:15;5.90;;;4.22;;
11957;SDS011;6039;52.576;13.348;2023-09-07T08:06:20;5.57;;;5.07;;
11957;SDS011;6039;52.576;13.348;2023-09-07T08:11:24;5.22;;;4.70;;
11957;SDS011;6039;52.576;13.348;2023-09-07T08:16:30;4.70;;;4.22;;
11957;SDS011;6039;52.576;13.348;2023-09-07T08:21:34;6.75;;;4.80;;
11957;SDS011;6039;52.576;13.348;2023-09-07T08:26:38;5.80;;;4.60;;
11957;SDS011;6039;52.576;13.348;2023-09-07T08:31:46;4.78;;;4.28;;
11957;SDS011;6039;52.576;13.348;2023-09-07T08:36:50;5.40;;;4.38;;
11957;SDS011;6039;52.576;13.348;2023-09-07T08:41:56;5.00;;;4.50;;
11957;SDS011;6039;52.576;13.348;2023-09-07T08:47:03;4.60;;;4.13;;
11957;SDS011;6039;52.576;13.348;2023-09-07T08:52:08;6.28;;;4.30;;
11957;SDS011;6039;52.576;13.348;2023-09-07T08:57:12;7.45;;;4.70;;
11957;SDS011;6039;52.576;13.348;2023-09-07T09:02:20;6.57;;;4.35;;
11957;SDS011;6039;52.576;13.348;2023-09-07T09:07:24;4.95;;;4.30;;
11957;SDS011;6039;52.576;13.348;2023-09-07T09:12:28;4.40;;;4.00;;
11957;SDS011;6039;52.576;13.348;2023-09-07T09:17:34;4.40;;;3.97;;
11957;SDS011;6039;52.576;13.348;2023-09-07T09:22:38;4.78;;;4.28;;
11957;SDS011;6039;52.576;13.348;2023-09-07T09:27:42;5.50;;;4.43;;
11957;SDS011;6039;52.576;13.348;2023-09-07T09:32:49;6.03;;;4.20;;
11957;SDS011;6039;52.576;13.348;2023-09-07T09:37:54;6.72;;;4.25;;
11957;SDS011;6039;52.576;13.348;2023-09-07T09:42:59;4.60;;;4.20;;
11957;SDS011;6039;52.576;13.348;2023-09-07T09:48:08;5.20;;;4.40;;
11957;SDS011;6039;52.576;13.348;2023-09-07T09:53:12;8.98;;;4.47;;
11957;SDS011;6039;52.576;13.348;2023-09-07T09:58:18;7.55;;;4.60;;
11957;SDS011;6039;52.576;13.348;2023-09-07T10:03:26;4.95;;;4.45;;
11957;SDS011;6039;52.576;13.348;2023-09-07T10:08:31;5.80;;;4.68;;
11957;SDS011;6039;52.576;13.348;2023-09-07T10:13:35;6.35;;;4.63;;
11957;SDS011;6039;52.576;13.348;2023-09-07T10:18:43;5.03;;;4.22;;
11957;SDS011;6039;52.576;13.348;2023-09-07T10:23:47;6.57;;;4.40;;
11957;SDS011;6039;52.576;13.348;2023-09-07T10:28:58;4.80;;;4.28;;
11957;SDS011;6039;52.576;13.348;2023-09-07T10:34:12;5.45;;;4.03;;
11957;SDS011;6039;52.576;13.348;2023-09-07T10:39:17;4.63;;;4.20;;
11957;SDS011;6039;52.576;13.348;2023-09-07T10:44:25;4.70;;;4.25;;
11957;SDS011;6039;52.576;13.348;2023-09-07T10:49:31;4.90;;;4.43;;
11957;SDS011;6039;52.576;13.348;2023-09-07T10:54:35;4.72;;;4.32;;
11957;SDS011;6039;52.576;13.348;2023-09-07T10:59:44;4.47;;;4.07;;
11957;SDS011;6039;52.576;13.348;2023-09-07T11:04:50;4.40;;;4.00;;
11957;SDS011;6039;52.576;13.348;2023-09-07T11:09:56;4.05;;;3.67;;
11957;SDS011;6039;52.576;13.348;2023-09-07T11:15:00;4.82;;;3.95;;
11957;SDS011;6039;52.576;13.348;2023-09-07T11:20:07;4.22;;;3.42;;
11957;SDS011;6039;52.576;13.348;2023-09-07T11:25:12;4.78;;;3.72;;
11957;SDS011;6039;52.576;13.348;2023-09-07T11:30:16;4.00;;;3.60;;
11957;SDS011;6039;52.576;13.348;2023-09-07T11:35:27;4.07;;;3.38;;
11957;SDS011;6039;52.576;13.348;2023-09-07T11:40:31;4.13;;;3.72;;
11957;SDS011;6039;52.576;13.348;2023-09-07T11:45:35;6.07;;;4.13;;
11957;SDS011;6039;52.576;13.348;2023-09-07T11:50:42;4.25;;;3.80;;
11957;SDS011;6039;52.576;13.348;2023-09-07T11:55:46;4.35;;;3.42;;
11957;SDS011;6039;52.576;13.348;2023-09-07T12:00:50;4.07;;;3.40;;
11957;SDS011;6039;52.576;13.348;2023-09-07T12:05:57;3.90;;;3.50;;
11957;SDS011;6039;52.576;13.348;2023-09-07T12:11:01;3.58;;;3.25;;
11957;SDS011;6039;52.576;13.348;2023-09-07T12:16:05;4.65;;;3.13;;
11957;SDS011;6039;52.576;13.348;2023-09-07T12:21:12;3.67;;;3.33;;
11957;SDS011;6039;52.576;13.348;2023-09-07T12:26:16;3.50;;;3.20;;
11957;SDS011;6039;52.576;13.348;2023-09-07T12:31:20;4.60;;;3.80;;
11957;SDS011;6039;52.576;13.348;2023-09-07T12:36:27;4.65;;;3.50;;
11957;SDS011;6039;52.576;13.348;2023-09-07T12:41:31;4.60;;;3.60;;
11957;SDS011;6039;52.576;13.348;2023-09-07T12:46:35;3.60;;;3.30;;
11957;SDS011;6039;52.576;13.348;2023-09-07T12:51:41;3.97;;;3.35;;
11957;SDS011;6039;52.576;13.348;2023-09-07T12:56:45;3.60;;;3.28;;
11957;SDS011;6039;52.576;13.348;2023-09-07T13:01:49;5.40;;;3.70;;
11957;SDS011;6039;52.576;13.348;2023-09-07T13:06:58;4.15;;;3.42;;
11957;SDS011;6039;52.576;13.348;2023-09-07T13:12:02;6.05;;;3.85;;
11957;SDS011;6039;52.576;13.348;2023-09-07T13:17:11;7.38;;;3.72;;
11957;SDS011;6039;52.576;13.348;2023-09-07T13:22:18;3.88;;;3.45;;
11957;SDS011;6039;52.576;13.348;2023-09-07T13:27:23;4.97;;;3.75;;
11957;SDS011;6039;52.576;13.348;2023-09-07T13:32:27;3.92;;;3.40;;
11957;SDS011;6039;52.576;13.348;2023-09-07T13:37:35;5.10;;;3.30;;
11957;SDS011;6039;52.576;13.348;2023-09-07T13:42:39;3.47;;;3.17;;
11957;SDS011;6039;52.576;13.348;2023-09-07T13:47:43;5.95;;;3.50;;
11957;SDS011;6039;52.576;13.348;2023-09-07T13:52:49;3.83;;;3.33;;
11957;SDS011;6039;52.576;13.348;2023-09-07T13:57:53;4.15;;;3.35;;
11957;SDS011;6039;52.576;13.348;2023-09-07T14:02:57;5.85;;;3.97;;
11957;SDS011;6039;52.576;13.348;2023-09-07T14:08:04;11.55;;;7.53;;
11957;SDS011;6039;52.576;13.348;2023-09-07T14:13:08;6.20;;;4.65;;
11957;SDS011;6039;52.576;13.348;2023-09-07T14:18:12;8.27;;;5.70;;
11957;SDS011;6039;52.576;13.348;2023-09-07T14:23:18;10.23;;;6.55;;
11957;SDS011;6039;52.576;13.348;2023-09-07T14:28:23;12.38;;;8.35;;
11957;SDS011;6039;52.576;13.348;2023-09-07T14:33:27;11.07;;;8.75;;
11957;SDS011;6039;52.576;13.348;2023-09-07T14:38:34;7.38;;;6.10;;
11957;SDS011;6039;52.576;13.348;2023-09-07T14:43:41;6.05;;;4.57;;
11957;SDS011;6039;52.576;13.348;2023-09-07T14:48:45;5.47;;;3.97;;
11957;SDS011;6039;52.576;13.348;2023-09-07T14:53:52;4.20;;;3.67;;
11957;SDS011;6039;52.576;13.348;2023-09-07T14:58:56;5.38;;;3.58;;
11957;SDS011;6039;52.576;13.348;2023-09-07T15:04:00;5.93;;;4.15;;
11957;SDS011;6039;52.576;13.348;2023-09-07T15:09:06;4.35;;;3.90;;
11957;SDS011;6039;52.576;13.348;2023-09-07T15:14:11;4.70;;;3.60;;
11957;SDS011;6039;52.576;13.348;2023-09-07T15:19:14;7.95;;;3.80;;
11957;SDS011;6039;52.576;13.348;2023-09-07T15:24:21;6.90;;;3.45;;
11957;SDS011;6039;52.576;13.348;2023-09-07T15:29:25;4.32;;;3.78;;
11957;SDS011;6039;52.576;13.348;2023-09-07T15:34:29;4.65;;;3.70;;
11957;SDS011;6039;52.576;13.348;2023-09-07T15:39:36;4.75;;;3.95;;
11957;SDS011;6039;52.576;13.348;2023-09-07T15:44:42;4.97;;;3.60;;
11957;SDS011;6039;52.576;13.348;2023-09-07T15:49:46;4.65;;;3.80;;
11957;SDS011;6039;52.576;13.348;2023-09-07T15:54:53;5.15;;;3.92;;
11957;SDS011;6039;52.576;13.348;2023-09-07T15:59:57;4.25;;;3.63;;
11957;SDS011;6039;52.576;13.348;2023-09-07T16:05:01;4.68;;;3.92;;
11957;SDS011;6039;52.576;13.348;2023-09-07T16:10:08;4.93;;;3.97;;
11957;SDS011;6039;52.576;13.348;2023-09-07T16:15:13;5.28;;;4.25;;
11957;SDS011;6039;52.576;13.348;2023-09-07T16:20:16;5.57;;;3.85;;
11957;SDS011;6039;52.576;13.348;2023-09-07T16:25:23;6.30;;;3.78;;
11957;SDS011;6039;52.576;13.348;2023-09-07T16:30:27;5.13;;;3.90;;
11957;SDS011;6039;52.576;13.348;2023-09-07T16:35:31;8.45;;;3.97;;
11957;SDS011;6039;52.576;13.348;2023-09-07T16:40:38;5.97;;;4.35;;
11957;SDS011;6039;52.576;13.348;2023-09-07T16:45:42;5.75;;;4.05;;
11957;SDS011;6039;52.576;13.348;2023-09-07T16:50:46;4.70;;;3.55;;
11957;SDS011;6039;52.576;13.348;2023-09-07T16:55:53;6.97;;;4.22;;
11957;SDS011;6039;52.576;13.348;2023-09-07T17:01:02;6.05;;;4.53;;
11957;SDS011;6039;52.576;13.348;2023-09-07T17:06:08;5.15;;;3.97;;
11957;SDS011;6039;52.576;13.348;2023-09-07T17:11:14;7.32;;;5.60;;
11957;SDS011;6039;52.576;13.348;2023-09-07T17:16:18;6.28;;;5.30;;
11957;SDS011;6039;52.576;13.348;2023-09-07T17:21:22;6.35;;;4.75;;
11957;SDS011;6039;52.576;13.348;2023-09-07T17:26:29;12.13;;;5.97;;
11957;SDS011;6039;52.576;13.348;2023-09-07T17:31:36;8.90;;;6.20;;
11957;SDS011;6039;52.576;13.348;2023-09-07T17:36:40;8.27;;;5.85;;
11957;SDS011;6039;52.576;13.348;2023-09-07T17:41:47;8.80;;;6.40;;
11957;SDS011;6039;52.576;13.348;2023-09-07T17:46:52;7.72;;;6.60;;
11957;SDS011;6039;52.576;13.348;2023-09-07T17:51:56;8.25;;;6.28;;
11957;SDS011;6039;52.576;13.348;2023-09-07T17:57:03;6.93;;;5.70;;
11957;SDS011;6039;52.576;13.348;2023-09-07T18:02:15;9.50;;;6.95;;
11957;SDS011;6039;52.576;13.348;2023-09-07T18:07:22;16.92;;;7.10;;
11957;SDS011;6039;52.576;13.348;2023-09-07T18:12:29;7.45;;;5.57;;
11957;SDS011;6039;52.576;13.348;2023-09-07T18:17:33;12.00;;;6.10;;
11957;SDS011;6039;52.576;13.348;2023-09-07T18:22:40;8.43;;;6.20;;
11957;SDS011;6039;52.576;13.348;2023-09-07T18:27:46;10.80;;;5.68;;
11957;SDS011;6039;52.576;13.348;2023-09-07T18:32:51;8.55;;;6.57;;
11957;SDS011;6039;52.576;13.348;2023-09-07T18:37:56;8.48;;;5.80;;
11957;SDS011;6039;52.576;13.348;2023-09-07T18:43:03;8.37;;;5.90;;
11957;SDS011;6039;52.576;13.348;2023-09-07T18:48:07;6.57;;;5.33;;
11957;SDS011;6039;52.576;13.348;2023-09-07T18:53:11;7.67;;;6.50;;
11957;SDS011;6039;52.576;13.348;2023-09-07T18:58:18;8.73;;;6.18;;
11957;SDS011;6039;52.576;13.348;2023-09-07T19:03:22;8.10;;;5.50;;
11957;SDS011;6039;52.576;13.348;2023-09-07T19:08:27;9.15;;;5.68;;
11957;SDS011;6039;52.576;13.348;2023-09-07T19:13:33;7.20;;;5.40;;
11957;SDS011;6039;52.576;13.348;2023-09-07T19:18:38;7.20;;;5.57;;
11957;SDS011;6039;52.576;13.348;2023-09-07T19:23:42;7.05;;;5.50;;
11957;SDS011;6039;52.576;13.348;2023-09-07T19:28:49;7.82;;;5.53;;
11957;SDS011;6039;52.576;13.348;2023-09-07T19:33:53;7.15;;;4.90;;
11957;SDS011;6039;52.576;13.348;2023-09-07T19:38:59;9.30;;;5.47;;
11957;SDS011;6039;52.576;13.348;2023-09-07T19:44:06;8.73;;;5.70;;
11957;SDS011;6039;52.576;13.348;2023-09-07T19:49:11;10.32;;;8.75;;
11957;SDS011;6039;52.576;13.348;2023-09-07T19:54:15;7.55;;;5.72;;
11957;SDS011;6039;52.576;13.348;2023-09-07T19:59:22;7.40;;;5.60;;
11957;SDS011;6039;52.576;13.348;2023-09-07T20:04:28;7.53;;;5.77;;
11957;SDS011;6039;52.576;13.348;2023-09-07T20:09:32;6.03;;;5.10;;
11957;SDS011;6039;52.576;13.348;2023-09-07T20:14:39;8.43;;;6.30;;
11957;SDS011;6039;52.576;13.348;2023-09-07T20:19:43;9.23;;;6.90;;
11957;SDS011;6039;52.576;13.348;2023-09-07T20:24:47;9.40;;;6.57;;
11957;SDS011;6039;52.576;13.348;2023-09-07T20:29:54;7.30;;;6.40;;
11957;SDS011;6039;52.576;13.348;2023-09-07T20:34:58;8.10;;;6.03;;
11957;SDS011;6039;52.576;13.348;2023-09-07T20:40:04;10.40;;;6.63;;
11957;SDS011;6039;52.576;13.348;2023-09-07T20:45:15;8.37;;;6.00;;
11957;SDS011;6039;52.576;13.348;2023-09-07T20:50:19;9.63;;;6.03;;
11957;SDS011;6039;52.576;13.348;2023-09-07T20:55:23;9.33;;;6.33;;
11957;SDS011;6039;52.576;13.348;2023-09-07T21:00:29;8.03;;;5.90;;
11957;SDS011;6039;52.576;13.348;2023-09-07T21:05:33;8.47;;;6.10;;
11957;SDS011;6039;52.576;13.348;2023-09-07T21:10:37;10.40;;;6.13;;
11957;SDS011;6039;52.576;13.348;2023-09-07T21:15:44;8.97;;;5.43;;
11957;SDS011;6039;52.576;13.348;2023-09-07T21:20:48;7.40;;;5.90;;
11957;SDS011;6039;52.576;13.348;2023-09-07T21:25:52;7.33;;;6.03;;
11957;SDS011;6039;52.576;13.348;2023-09-07T21:30:59;10.23;;;6.17;;
11957;SDS011;6039;52.576;13.348;2023-09-07T21:36:03;7.63;;;5.93;;
11957;SDS011;6039;52.576;13.348;2023-09-07T21:41:07;7.83;;;6.33;;
11957;SDS011;6039;52.576;13.348;2023-09-07T21:46:14;7.37;;;5.70;;
11957;SDS011;6039;52.576;13.348;2023-09-07T21:51:18;8.53;;;6.37;;
11957;SDS011;6039;52.576;13.348;2023-09-07T21:56:23;9.23;;;6.50;;
11957;SDS011;6039;52.576;13.348;2023-09-07T22:01:29;9.57;;;6.87;;
11957;SDS011;6039;52.576;13.348;2023-09-07T22:06:33;7.17;;;5.80;;
11957;SDS011;6039;52.576;13.348;2023-09-07T22:11:37;8.53;;;6.60;;
11957;SDS011;6039;52.576;13.348;2023-09-07T22:16:44;7.60;;;5.73;;
11957;SDS011;6039;52.576;13.348;2023-09-07T22:21:48;7.20;;;5.77;;
11957;SDS011;6039;52.576;13.348;2023-09-07T22:26:52;8.80;;;6.47;;
11957;SDS011;6039;52.576;13.348;2023-09-07T22:31:58;9.90;;;6.63;;
11957;SDS011;6039;52.576;13.348;2023-09-07T22:37:02;8.97;;;6.53;;
11957;SDS011;6039;52.576;13.348;2023-09-07T22:42:07;8.70;;;6.80;;
11957;SDS011;6039;52.576;13.348;2023-09-07T22:47:13;9.87;;;7.03;;
11957;SDS011;6039;52.576;13.348;2023-09-07T22:52:17;10.17;;;6.90;;
11957;SDS011;6039;52.576;13.348;2023-09-07T22:57:21;9.30;;;6.77;;
11957;SDS011;6039;52.576;13.348;2023-09-07T23:02:28;8.67;;;6.83;;
11957;SDS011;6039;52.576;13.348;2023-09-07T23:07:32;7.90;;;6.50;;
11957;SDS011;6039;52.576;13.348;2023-09-07T23:12:36;10.30;;;8.33;;
11957;SDS011;6039;52.576;13.348;2023-09-07T23:17:42;9.80;;;6.70;;
11957;SDS011;6039;52.576;13.348;2023-09-07T23:22:47;9.00;;;6.70;;
11957;SDS011;6039;52.576;13.348;2023-09-07T23:27:51;8.33;;;6.53;;
11957;SDS011;6039;52.576;13.348;2023-09-07T23:32:58;8.33;;;6.67;;
11957;SDS011;6039;52.576;13.348;2023-09-07T23:38:02;8.60;;;6.70;;
11957;SDS011;6039;52.576;13.348;2023-09-07T23:43:06;7.17;;;6.40;;
11957;SDS011;6039;52.576;13.348;2023-09-07T23:48:13;8.20;;;6.30;;
11957;SDS011;6039;52.576;13.348;2023-09-07T23:53:17;7.77;;;6.33;;
11957;SDS011;6039;52.576;13.348;2023-09-07T23:58:21;10.13;;;6.43;;
